Terminal Aerodrome Forecast
Issued by NWS

Home | Current Version | Previous Version | Text Only | Print | Product List | Glossary Off
Versions: 1 2 3 4 5 6 7 8 9 10 11 12 13

007
FTUS43 KGRB 200924 AAA
TAFAUW
TAF AMD
KAUW 200924Z 2009/2106 VRB03KT 6SM BR SCT009 BKN100
      TEMPO 2010/2014 4SM BR
     FM201500 35010KT P6SM BKN100
     FM202200 34003KT P6SM SCT100=

USA.gov is the U.S. government's official web portal to all federal, state and local government web resources and services.